sensor_id;sensor_type;location;lat;lon;timestamp;pressure;altitude;pressure_sealevel;temperature;humidity
20955;BME280;10636;19.390;-99.256;2023-02-28T00:01:43;77623.44;;;26.88;21.88
20955;BME280;10636;19.390;-99.256;2023-02-28T00:04:15;77621.41;;;26.87;21.60
20955;BME280;10636;19.390;-99.256;2023-02-28T00:06:45;77621.94;;;26.81;21.59
20955;BME280;10636;19.390;-99.256;2023-02-28T00:09:14;77634.84;;;26.87;21.97
20955;BME280;10636;19.390;-99.256;2023-02-28T00:11:45;77629.38;;;26.82;21.89
20955;BME280;10636;19.390;-99.256;2023-02-28T00:14:14;77634.84;;;26.87;21.93
20955;BME280;10636;19.390;-99.256;2023-02-28T00:16:42;77636.19;;;26.85;21.84
20955;BME280;10636;19.390;-99.256;2023-02-28T00:19:12;77636.19;;;26.85;22.10
20955;BME280;10636;19.390;-99.256;2023-02-28T00:21:41;77637.50;;;26.84;22.14
20955;BME280;10636;19.390;-99.256;2023-02-28T00:24:09;77636.13;;;26.83;21.98
20955;BME280;10636;19.390;-99.256;2023-02-28T00:26:40;77647.59;;;26.84;21.73
20955;BME280;10636;19.390;-99.256;2023-02-28T00:29:13;77635.91;;;26.75;21.81
20955;BME280;10636;19.390;-99.256;2023-02-28T00:31:42;77649.56;;;26.83;22.08
20955;BME280;10636;19.390;-99.256;2023-02-28T00:34:10;77648.88;;;26.83;21.93
20955;BME280;10636;19.390;-99.256;2023-02-28T00:36:42;77644.13;;;26.81;21.88
20955;BME280;10636;19.390;-99.256;2023-02-28T00:39:12;77639.25;;;26.74;21.71
20955;BME280;10636;19.390;-99.256;2023-02-28T00:41:41;77649.53;;;26.81;21.75
20955;BME280;10636;19.390;-99.256;2023-02-28T00:44:09;77648.16;;;26.80;21.93
20955;BME280;10636;19.390;-99.256;2023-02-28T00:46:39;77647.47;;;26.80;22.01
20955;BME280;10636;19.390;-99.256;2023-02-28T00:49:08;77643.41;;;26.79;21.78
20955;BME280;10636;19.390;-99.256;2023-02-28T00:51:37;77648.16;;;26.80;21.56
20955;BME280;10636;19.390;-99.256;2023-02-28T00:54:05;77646.78;;;26.79;21.98
20955;BME280;10636;19.390;-99.256;2023-02-28T00:56:34;77655.53;;;26.80;21.57
20955;BME280;10636;19.390;-99.256;2023-02-28T00:59:05;77654.84;;;26.79;21.50
20955;BME280;10636;19.390;-99.256;2023-02-28T01:01:34;77657.53;;;26.79;21.64
20955;BME280;10636;19.390;-99.256;2023-02-28T01:04:04;77666.22;;;26.78;21.55
20955;BME280;10636;19.390;-99.256;2023-02-28T01:06:35;77660.16;;;26.77;21.55
20955;BME280;10636;19.390;-99.256;2023-02-28T01:09:05;77674.94;;;26.76;nan
20955;BME280;10636;19.390;-99.256;2023-02-28T01:11:34;77679.63;;;26.76;21.76
20955;BME280;10636;19.390;-99.256;2023-02-28T01:14:03;77681.63;;;26.75;21.93
20955;BME280;10636;19.390;-99.256;2023-02-28T01:16:32;77680.09;;;26.68;22.19
20955;BME280;10636;19.390;-99.256;2023-02-28T01:19:00;77699.72;;;26.73;22.01
20955;BME280;10636;19.390;-99.256;2023-02-28T01:21:31;77702.41;;;26.73;22.24
20955;BME280;10636;19.390;-99.256;2023-02-28T01:24:01;77705.72;;;26.71;21.96
20955;BME280;10636;19.390;-99.256;2023-02-28T01:26:31;77707.75;;;26.71;22.16
20955;BME280;10636;19.390;-99.256;2023-02-28T01:28:59;77712.47;;;26.72;22.07
20955;BME280;10636;19.390;-99.256;2023-02-28T01:31:28;77717.88;;;26.72;22.07
20955;BME280;10636;19.390;-99.256;2023-02-28T01:33:57;77724.56;;;26.71;22.39
20955;BME280;10636;19.390;-99.256;2023-02-28T01:36:26;77727.94;;;26.72;22.47
20955;BME280;10636;19.390;-99.256;2023-02-28T01:38:56;77729.22;;;26.69;22.51
20955;BME280;10636;19.390;-99.256;2023-02-28T01:41:27;77735.31;;;26.71;22.78
20955;BME280;10636;19.390;-99.256;2023-02-28T01:44:01;77744.72;;;26.70;22.63
20955;BME280;10636;19.390;-99.256;2023-02-28T01:46:35;77763.53;;;26.70;22.94
20955;BME280;10636;19.390;-99.256;2023-02-28T01:49:07;77758.16;;;26.70;23.16
20955;BME280;10636;19.390;-99.256;2023-02-28T01:51:41;77762.19;;;26.69;22.86
20955;BME280;10636;19.390;-99.256;2023-02-28T01:54:22;77759.50;;;26.69;23.34
20955;BME280;10636;19.390;-99.256;2023-02-28T01:56:54;77750.66;;;26.67;23.35
20955;BME280;10636;19.390;-99.256;2023-02-28T01:59:27;77756.78;;;26.69;23.62
20955;BME280;10636;19.390;-99.256;2023-02-28T02:01:58;77756.78;;;26.69;23.37
20955;BME280;10636;19.390;-99.256;2023-02-28T02:04:31;77764.78;;;26.67;23.66
20955;BME280;10636;19.390;-99.256;2023-02-28T02:07:01;77768.16;;;26.68;23.64
20955;BME280;10636;19.390;-99.256;2023-02-28T02:09:32;77773.50;;;26.66;23.73
20955;BME280;10636;19.390;-99.256;2023-02-28T02:14:57;77792.31;;;26.66;23.90
20955;BME280;10636;19.390;-99.256;2023-02-28T02:17:32;77802.28;;;26.61;23.97
20955;BME280;10636;19.390;-99.256;2023-02-28T02:20:32;77810.34;;;26.61;24.04
20955;BME280;10636;19.390;-99.256;2023-02-28T02:23:28;77826.47;;;26.61;23.95
20955;BME280;10636;19.390;-99.256;2023-02-28T02:26:10;77825.13;;;26.60;24.19
20955;BME280;10636;19.390;-99.256;2023-02-28T02:29:12;77839.88;;;26.59;24.09
20955;BME280;10636;19.390;-99.256;2023-02-28T02:34:58;77860.03;;;26.58;23.90
20955;BME280;10636;19.390;-99.256;2023-02-28T02:37:36;77868.00;;;26.56;23.88
20955;BME280;10636;19.390;-99.256;2023-02-28T02:40:12;77872.72;;;26.55;23.70
20955;BME280;10636;19.390;-99.256;2023-02-28T02:42:47;77875.34;;;26.53;23.65
20955;BME280;10636;19.390;-99.256;2023-02-28T02:45:21;77878.63;;;26.52;23.53
20955;BME280;10636;19.390;-99.256;2023-02-28T02:47:52;77880.03;;;26.53;23.42
20955;BME280;10636;19.390;-99.256;2023-02-28T02:50:26;77884.03;;;26.52;23.11
20955;BME280;10636;19.390;-99.256;2023-02-28T02:52:59;77889.97;;;26.48;23.08
20955;BME280;10636;19.390;-99.256;2023-02-28T02:55:32;77898.66;;;26.47;22.95
20955;BME280;10636;19.390;-99.256;2023-02-28T02:58:05;77886.38;;;26.42;23.05
20955;BME280;10636;19.390;-99.256;2023-02-28T03:00:38;77891.75;;;26.42;23.02
20955;BME280;10636;19.390;-99.256;2023-02-28T03:03:10;77897.13;;;26.42;22.85
20955;BME280;10636;19.390;-99.256;2023-02-28T03:05:44;77891.69;;;26.40;22.46
20955;BME280;10636;19.390;-99.256;2023-02-28T03:08:14;77890.25;;;26.37;22.28
20955;BME280;10636;19.390;-99.256;2023-02-28T03:10:44;77898.09;;;26.30;22.21
20955;BME280;10636;19.390;-99.256;2023-02-28T03:13:42;77887.94;;;26.27;21.94
20955;BME280;10636;19.390;-99.256;2023-02-28T03:16:28;77893.84;;;26.23;21.61
20955;BME280;10636;19.390;-99.256;2023-02-28T03:19:11;77907.22;;;26.21;21.70
20955;BME280;10636;19.390;-99.256;2023-02-28T03:21:52;77898.41;;;26.19;21.28
20955;BME280;10636;19.390;-99.256;2023-02-28T03:24:29;77907.09;;;26.17;21.58
20955;BME280;10636;19.390;-99.256;2023-02-28T03:27:07;77905.59;;;26.12;21.11
20955;BME280;10636;19.390;-99.256;2023-02-28T03:29:40;77908.75;;;26.06;21.10
20955;BME280;10636;19.390;-99.256;2023-02-28T03:32:17;77909.31;;;26.03;21.27
20955;BME280;10636;19.390;-99.256;2023-02-28T03:34:51;77916.00;;;26.02;21.13
20955;BME280;10636;19.390;-99.256;2023-02-28T03:37:26;77918.00;;;26.01;20.98
20955;BME280;10636;19.390;-99.256;2023-02-28T03:39:59;77925.28;;;25.99;21.07
20955;BME280;10636;19.390;-99.256;2023-02-28T03:42:32;77925.16;;;25.95;21.12
20955;BME280;10636;19.390;-99.256;2023-02-28T03:45:04;77919.78;;;25.95;20.70
20955;BME280;10636;19.390;-99.256;2023-02-28T03:47:37;77925.84;;;25.95;21.12
20955;BME280;10636;19.390;-99.256;2023-02-28T03:50:10;77927.16;;;25.94;20.61
20955;BME280;10636;19.390;-99.256;2023-02-28T03:52:46;77921.03;;;25.92;20.70
20955;BME280;10636;19.390;-99.256;2023-02-28T03:55:17;77931.78;;;25.92;21.00
20955;BME280;10636;19.390;-99.256;2023-02-28T03:57:55;77916.63;;;25.80;20.66
20955;BME280;10636;19.390;-99.256;2023-02-28T04:00:29;77939.63;;;25.86;20.37
20955;BME280;10636;19.390;-99.256;2023-02-28T04:02:59;77938.25;;;25.85;20.81
20955;BME280;10636;19.390;-99.256;2023-02-28T04:05:28;77938.16;;;25.83;21.02
20955;BME280;10636;19.390;-99.256;2023-02-28T04:08:07;77946.22;;;25.83;20.35
20955;BME280;10636;19.390;-99.256;2023-02-28T04:10:35;77946.16;;;25.80;20.63
20955;BME280;10636;19.390;-99.256;2023-02-28T04:13:04;77939.47;;;25.81;20.69
20955;BME280;10636;19.390;-99.256;2023-02-28T04:15:35;77946.31;;;25.85;20.90
20955;BME280;10636;19.390;-99.256;2023-02-28T04:18:04;77953.13;;;25.88;21.50
20955;BME280;10636;19.390;-99.256;2023-02-28T04:20:33;77961.97;;;25.90;21.16
20955;BME280;10636;19.390;-99.256;2023-02-28T04:23:02;77952.63;;;25.93;21.15
20955;BME280;10636;19.390;-99.256;2023-02-28T04:25:32;77947.34;;;25.95;21.22
20955;BME280;10636;19.390;-99.256;2023-02-28T04:28:00;77945.25;;;25.94;21.16
20955;BME280;10636;19.390;-99.256;2023-02-28T04:30:29;77951.34;;;25.94;21.54
20955;BME280;10636;19.390;-99.256;2023-02-28T04:32:58;77950.63;;;25.94;21.63
20955;BME280;10636;19.390;-99.256;2023-02-28T04:35:28;77954.44;;;25.87;21.80
20955;BME280;10636;19.390;-99.256;2023-02-28T04:37:56;77960.09;;;25.95;21.78
20955;BME280;10636;19.390;-99.256;2023-02-28T04:40:25;77965.38;;;25.93;21.88
20955;BME280;10636;19.390;-99.256;2023-02-28T04:42:55;77964.69;;;25.92;21.79
20955;BME280;10636;19.390;-99.256;2023-02-28T04:45:24;77949.06;;;25.87;21.96
20955;BME280;10636;19.390;-99.256;2023-02-28T04:47:53;77963.38;;;25.93;22.16
20955;BME280;10636;19.390;-99.256;2023-02-28T04:50:21;77953.75;;;25.86;21.95
20955;BME280;10636;19.390;-99.256;2023-02-28T04:52:51;77950.28;;;25.84;22.08
20955;BME280;10636;19.390;-99.256;2023-02-28T04:55:21;77968.75;;;25.93;22.21
20955;BME280;10636;19.390;-99.256;2023-02-28T04:57:50;77974.75;;;25.92;22.21
20955;BME280;10636;19.390;-99.256;2023-02-28T05:00:21;77961.31;;;25.92;22.56
20955;BME280;10636;19.390;-99.256;2023-02-28T05:02:49;77964.00;;;25.92;22.55
20955;BME280;10636;19.390;-99.256;2023-02-28T05:05:18;77969.38;;;25.92;22.29
20955;BME280;10636;19.390;-99.256;2023-02-28T05:07:47;77964.00;;;25.92;22.26
20955;BME280;10636;19.390;-99.256;2023-02-28T05:10:16;77957.13;;;25.87;22.15
20955;BME280;10636;19.390;-99.256;2023-02-28T05:12:45;77966.63;;;25.90;22.47
20955;BME280;10636;19.390;-99.256;2023-02-28T05:15:15;77970.69;;;25.91;22.63
20955;BME280;10636;19.390;-99.256;2023-02-28T05:17:45;77955.22;;;25.89;22.30
20955;BME280;10636;19.390;-99.256;2023-02-28T05:20:14;77959.88;;;25.89;22.61
20955;BME280;10636;19.390;-99.256;2023-02-28T05:22:44;77957.19;;;25.89;22.27
20955;BME280;10636;19.390;-99.256;2023-02-28T05:25:15;77948.53;;;25.90;22.76
20955;BME280;10636;19.390;-99.256;2023-02-28T05:27:45;77950.53;;;25.90;22.36
20955;BME280;10636;19.390;-99.256;2023-02-28T05:30:13;77951.81;;;25.89;22.51
20955;BME280;10636;19.390;-99.256;2023-02-28T05:32:42;77947.75;;;25.88;22.79
20955;BME280;10636;19.390;-99.256;2023-02-28T05:35:13;77957.13;;;25.87;22.63
20955;BME280;10636;19.390;-99.256;2023-02-28T05:37:41;77959.81;;;25.87;22.83
20955;BME280;10636;19.390;-99.256;2023-02-28T05:40:11;77958.50;;;25.88;22.96
20955;BME280;10636;19.390;-99.256;2023-02-28T05:42:40;77957.81;;;25.87;22.70
20955;BME280;10636;19.390;-99.256;2023-02-28T05:45:09;77967.88;;;25.87;22.53
20955;BME280;10636;19.390;-99.256;2023-02-28T05:47:40;77957.06;;;25.85;22.62
20955;BME280;10636;19.390;-99.256;2023-02-28T05:50:10;77947.69;;;25.86;22.43
20955;BME280;10636;19.390;-99.256;2023-02-28T05:52:40;77960.44;;;25.85;22.80
20955;BME280;10636;19.390;-99.256;2023-02-28T05:55:12;77964.44;;;25.84;22.72
20955;BME280;10636;19.390;-99.256;2023-02-28T05:57:40;77959.06;;;25.84;22.80
20955;BME280;10636;19.390;-99.256;2023-02-28T06:00:10;77960.34;;;25.83;22.75
20955;BME280;10636;19.390;-99.256;2023-02-28T06:02:41;77970.34;;;25.80;22.76
20955;BME280;10636;19.390;-99.256;2023-02-28T06:05:13;77973.72;;;25.81;22.60
20955;BME280;10636;19.390;-99.256;2023-02-28T06:07:44;77968.97;;;25.79;22.88
20955;BME280;10636;19.390;-99.256;2023-02-28T06:10:13;77970.88;;;25.77;22.65
20955;BME280;10636;19.390;-99.256;2023-02-28T06:12:42;77968.97;;;25.79;22.81
20955;BME280;10636;19.390;-99.256;2023-02-28T06:15:13;77974.34;;;25.79;22.69
20955;BME280;10636;19.390;-99.256;2023-02-28T06:17:43;77964.66;;;25.72;23.04
20955;BME280;10636;19.390;-99.256;2023-02-28T06:20:12;77955.22;;;25.71;22.85
20955;BME280;10636;19.390;-99.256;2023-02-28T06:22:43;77968.81;;;25.75;23.08
20955;BME280;10636;19.390;-99.256;2023-02-28T06:25:11;77973.50;;;25.75;22.62
20955;BME280;10636;19.390;-99.256;2023-02-28T06:27:40;77967.34;;;25.72;23.05
20955;BME280;10636;19.390;-99.256;2023-02-28T06:30:10;77968.75;;;25.73;23.06
20955;BME280;10636;19.390;-99.256;2023-02-28T06:32:39;77959.97;;;25.73;23.04
20955;BME280;10636;19.390;-99.256;2023-02-28T06:35:08;77964.66;;;25.72;22.99
20955;BME280;10636;19.390;-99.256;2023-02-28T06:37:37;77962.66;;;25.73;23.06
20955;BME280;10636;19.390;-99.256;2023-02-28T06:40:08;77959.28;;;25.72;22.77
20955;BME280;10636;19.390;-99.256;2023-02-28T06:42:37;77959.28;;;25.72;23.01
20955;BME280;10636;19.390;-99.256;2023-02-28T06:45:07;77955.84;;;25.70;23.03
20955;BME280;10636;19.390;-99.256;2023-02-28T06:47:37;77956.53;;;25.70;23.12
20955;BME280;10636;19.390;-99.256;2023-02-28T06:50:08;77959.22;;;25.70;22.96
20955;BME280;10636;19.390;-99.256;2023-02-28T06:52:37;77961.91;;;25.70;22.92
20955;BME280;10636;19.390;-99.256;2023-02-28T06:55:08;77960.53;;;25.69;23.05
20955;BME280;10636;19.390;-99.256;2023-02-28T06:57:37;77963.13;;;25.67;23.22
20955;BME280;10636;19.390;-99.256;2023-02-28T07:00:07;77957.69;;;25.65;22.77
20955;BME280;10636;19.390;-99.256;2023-02-28T07:02:37;77950.88;;;25.62;23.28
20955;BME280;10636;19.390;-99.256;2023-02-28T07:05:06;77959.69;;;25.65;22.76
20955;BME280;10636;19.390;-99.256;2023-02-28T07:07:35;77952.94;;;25.64;23.05
20955;BME280;10636;19.390;-99.256;2023-02-28T07:10:11;77941.06;;;25.51;23.09
20955;BME280;10636;19.390;-99.256;2023-02-28T07:12:43;77946.75;;;25.59;22.96
20955;BME280;10636;19.390;-99.256;2023-02-28T07:15:14;77954.88;;;25.61;22.66
20955;BME280;10636;19.390;-99.256;2023-02-28T07:17:43;77956.19;;;25.60;22.93
20955;BME280;10636;19.390;-99.256;2023-02-28T07:20:12;77948.06;;;25.58;22.75
20955;BME280;10636;19.390;-99.256;2023-02-28T07:22:41;77950.66;;;25.56;22.91
20955;BME280;10636;19.390;-99.256;2023-02-28T07:25:11;77950.75;;;25.58;23.01
20955;BME280;10636;19.390;-99.256;2023-02-28T07:27:40;77943.84;;;25.53;23.03
20955;BME280;10636;19.390;-99.256;2023-02-28T07:30:10;77946.44;;;25.51;22.81
20955;BME280;10636;19.390;-99.256;2023-02-28T07:32:38;77949.91;;;25.53;23.07
20955;BME280;10636;19.390;-99.256;2023-02-28T07:35:08;77944.44;;;25.51;23.19
20955;BME280;10636;19.390;-99.256;2023-02-28T07:37:36;77947.81;;;25.52;23.00
20955;BME280;10636;19.390;-99.256;2023-02-28T07:40:07;77938.31;;;25.49;23.14
20955;BME280;10636;19.390;-99.256;2023-02-28T07:42:38;77935.69;;;25.51;23.22
20955;BME280;10636;19.390;-99.256;2023-02-28T07:45:08;77931.50;;;25.46;22.98
20955;BME280;10636;19.390;-99.256;2023-02-28T07:47:38;77946.38;;;25.49;23.05
20955;BME280;10636;19.390;-99.256;2023-02-28T07:50:07;77940.94;;;25.47;23.14
20955;BME280;10636;19.390;-99.256;2023-02-28T07:52:37;77941.56;;;25.45;22.76
20955;BME280;10636;19.390;-99.256;2023-02-28T07:55:07;77934.13;;;25.44;22.86
20955;BME280;10636;19.390;-99.256;2023-02-28T07:57:37;77930.06;;;25.43;22.87
20955;BME280;10636;19.390;-99.256;2023-02-28T08:00:08;77916.97;;;25.33;23.05
20955;BME280;10636;19.390;-99.256;2023-02-28T08:02:37;77924.69;;;25.43;23.07
20955;BME280;10636;19.390;-99.256;2023-02-28T08:05:07;77928.69;;;25.42;22.76
20955;BME280;10636;19.390;-99.256;2023-02-28T08:07:36;77932.06;;;25.42;22.97
20955;BME280;10636;19.390;-99.256;2023-02-28T08:10:05;77924.59;;;25.41;23.04
20955;BME280;10636;19.390;-99.256;2023-02-28T08:12:37;77923.22;;;25.40;22.92
20955;BME280;10636;19.390;-99.256;2023-02-28T08:15:07;77927.22;;;25.39;23.30
20955;BME280;10636;19.390;-99.256;2023-02-28T08:17:36;77912.13;;;25.29;23.22
20955;BME280;10636;19.390;-99.256;2023-02-28T08:20:05;77918.34;;;25.34;23.08
20955;BME280;10636;19.390;-99.256;2023-02-28T08:22:35;77916.97;;;25.33;22.96
20955;BME280;10636;19.390;-99.256;2023-02-28T08:25:04;77914.91;;;25.32;22.72
20955;BME280;10636;19.390;-99.256;2023-02-28T08:27:33;77914.91;;;25.32;23.03
20955;BME280;10636;19.390;-99.256;2023-02-28T08:30:04;77914.22;;;25.31;23.13
20955;BME280;10636;19.390;-99.256;2023-02-28T08:32:33;77909.53;;;25.32;22.91
20955;BME280;10636;19.390;-99.256;2023-02-28T08:35:02;77914.91;;;25.32;22.98
20955;BME280;10636;19.390;-99.256;2023-02-28T08:37:31;77910.13;;;25.30;23.36
20955;BME280;10636;19.390;-99.256;2023-02-28T08:39:59;77916.81;;;25.29;22.92
20955;BME280;10636;19.390;-99.256;2023-02-28T08:42:28;77908.00;;;25.26;22.93
20955;BME280;10636;19.390;-99.256;2023-02-28T08:44:57;77910.69;;;25.26;22.86
20955;BME280;10636;19.390;-99.256;2023-02-28T08:47:27;77905.19;;;25.22;23.25
20955;BME280;10636;19.390;-99.256;2023-02-28T08:49:56;77901.25;;;25.25;22.68
20955;BME280;10636;19.390;-99.256;2023-02-28T08:52:25;77905.91;;;25.25;22.73
20955;BME280;10636;19.390;-99.256;2023-02-28T08:54:53;77909.91;;;25.24;23.05
20955;BME280;10636;19.390;-99.256;2023-02-28T08:57:22;77909.22;;;25.23;22.89
20955;BME280;10636;19.390;-99.256;2023-02-28T08:59:52;77906.47;;;25.21;23.33
20955;BME280;10636;19.390;-99.256;2023-02-28T09:02:20;77903.03;;;25.19;22.77
20955;BME280;10636;19.390;-99.256;2023-02-28T09:04:51;77910.44;;;25.20;23.33
20955;BME280;10636;19.390;-99.256;2023-02-28T09:07:19;77903.03;;;25.19;23.47
20955;BME280;10636;19.390;-99.256;2023-02-28T09:09:48;77894.22;;;25.16;23.35
20955;BME280;10636;19.390;-99.256;2023-02-28T09:12:25;77904.97;;;25.16;23.12
20955;BME280;10636;19.390;-99.256;2023-02-28T09:14:54;77900.19;;;25.15;23.22
20955;BME280;10636;19.390;-99.256;2023-02-28T09:17:22;77904.88;;;25.14;23.44
20955;BME280;10636;19.390;-99.256;2023-02-28T09:19:52;77914.22;;;25.13;23.39
20955;BME280;10636;19.390;-99.256;2023-02-28T09:22:21;77909.50;;;25.12;23.55
20955;BME280;10636;19.390;-99.256;2023-02-28T09:24:50;77906.72;;;25.10;23.20
20955;BME280;10636;19.390;-99.256;2023-02-28T09:27:18;77895.75;;;25.03;23.20
20955;BME280;10636;19.390;-99.256;2023-02-28T09:29:47;77896.59;;;25.08;23.61
20955;BME280;10636;19.390;-99.256;2023-02-28T09:32:15;77895.28;;;25.09;23.16
20955;BME280;10636;19.390;-99.256;2023-02-28T09:34:44;77893.22;;;25.08;23.33
20955;BME280;10636;19.390;-99.256;2023-02-28T09:37:15;77896.53;;;25.06;22.95
20955;BME280;10636;19.390;-99.256;2023-02-28T09:39:43;77892.38;;;25.03;23.83
20955;BME280;10636;19.390;-99.256;2023-02-28T09:42:20;77891.00;;;25.02;23.20
20955;BME280;10636;19.390;-99.256;2023-02-28T09:44:50;77885.56;;;25.00;23.11
20955;BME280;10636;19.390;-99.256;2023-02-28T09:47:27;77882.88;;;25.00;23.75
20955;BME280;10636;19.390;-99.256;2023-02-28T09:50:06;77888.25;;;25.00;23.19
20955;BME280;10636;19.390;-99.256;2023-02-28T09:52:42;77888.94;;;25.00;23.88
20955;BME280;10636;19.390;-99.256;2023-02-28T09:55:19;77888.25;;;25.00;23.85
20955;BME280;10636;19.390;-99.256;2023-02-28T09:57:50;77881.47;;;24.99;23.60
20955;BME280;10636;19.390;-99.256;2023-02-28T10:00:21;77879.44;;;24.97;23.41
20955;BME280;10636;19.390;-99.256;2023-02-28T10:03:06;77882.72;;;24.96;23.37
20955;BME280;10636;19.390;-99.256;2023-02-28T10:05:38;77874.59;;;24.94;23.21
20955;BME280;10636;19.390;-99.256;2023-02-28T10:08:13;77881.94;;;24.93;23.91
20955;BME280;10636;19.390;-99.256;2023-02-28T10:10:44;77882.63;;;24.94;23.69
20955;BME280;10636;19.390;-99.256;2023-02-28T10:13:19;77882.56;;;24.92;23.45
20955;BME280;10636;19.390;-99.256;2023-02-28T10:15:52;77891.25;;;24.90;23.16
20955;BME280;10636;19.390;-99.256;2023-02-28T10:18:25;77891.16;;;24.88;23.73
20955;BME280;10636;19.390;-99.256;2023-02-28T10:20:57;77891.78;;;24.87;23.87
20955;BME280;10636;19.390;-99.256;2023-02-28T10:23:32;77894.41;;;24.85;23.42
20955;BME280;10636;19.390;-99.256;2023-02-28T10:26:11;77890.34;;;24.84;23.48
20955;BME280;10636;19.390;-99.256;2023-02-28T10:28:42;77886.94;;;24.83;23.80
20955;BME280;10636;19.390;-99.256;2023-02-28T10:31:13;77891.63;;;24.83;24.02
20955;BME280;10636;19.390;-99.256;2023-02-28T10:33:43;77890.25;;;24.82;23.46
20955;BME280;10636;19.390;-99.256;2023-02-28T10:36:15;77893.56;;;24.80;23.86
20955;BME280;10636;19.390;-99.256;2023-02-28T10:38:46;77895.56;;;24.80;23.93
20955;BME280;10636;19.390;-99.256;2023-02-28T10:41:16;77894.09;;;24.76;23.91
20955;BME280;10636;19.390;-99.256;2023-02-28T10:44:13;77896.09;;;24.76;23.78
20955;BME280;10636;19.390;-99.256;2023-02-28T10:46:43;77892.72;;;24.75;23.66
20955;BME280;10636;19.390;-99.256;2023-02-28T10:49:15;77891.25;;;24.72;24.00
20955;BME280;10636;19.390;-99.256;2023-02-28T10:51:45;77893.34;;;24.74;23.79
20955;BME280;10636;19.390;-99.256;2023-02-28T10:54:19;77899.38;;;24.74;23.93
20955;BME280;10636;19.390;-99.256;2023-02-28T10:57:08;77895.31;;;24.73;24.13
20955;BME280;10636;19.390;-99.256;2023-02-28T10:59:37;77894.03;;;24.74;23.80
20955;BME280;10636;19.390;-99.256;2023-02-28T11:02:30;77891.94;;;24.73;23.98
20955;BME280;10636;19.390;-99.256;2023-02-28T11:04:59;77903.28;;;24.71;24.37
20955;BME280;10636;19.390;-99.256;2023-02-28T11:07:28;77904.59;;;24.70;24.01
20955;BME280;10636;19.390;-99.256;2023-02-28T11:10:01;77903.22;;;24.69;23.79
20955;BME280;10636;19.390;-99.256;2023-02-28T11:12:37;77884.69;;;24.58;24.03
20955;BME280;10636;19.390;-99.256;2023-02-28T11:15:21;77904.53;;;24.68;24.38
20955;BME280;10636;19.390;-99.256;2023-02-28T11:17:56;77903.13;;;24.67;24.42
20955;BME280;10636;19.390;-99.256;2023-02-28T11:20:27;77897.75;;;24.67;23.88
20955;BME280;10636;19.390;-99.256;2023-02-28T11:22:56;77905.13;;;24.67;23.65
20955;BME280;10636;19.390;-99.256;2023-02-28T11:25:30;77899.00;;;24.64;24.13
20955;BME280;10636;19.390;-99.256;2023-02-28T11:28:01;77909.03;;;24.64;24.34
20955;BME280;10636;19.390;-99.256;2023-02-28T11:30:35;77909.72;;;24.64;24.51
20955;BME280;10636;19.390;-99.256;2023-02-28T11:33:27;77903.69;;;24.64;24.57
20955;BME280;10636;19.390;-99.256;2023-02-28T11:35:59;77905.00;;;24.63;24.04
20955;BME280;10636;19.390;-99.256;2023-02-28T11:38:28;77910.34;;;24.63;24.22
20955;BME280;10636;19.390;-99.256;2023-02-28T11:41:13;77901.59;;;24.62;24.10
20955;BME280;10636;19.390;-99.256;2023-02-28T11:44:07;77904.22;;;24.60;24.26
20955;BME280;10636;19.390;-99.256;2023-02-28T11:46:43;77901.47;;;24.58;23.89
20955;BME280;10636;19.390;-99.256;2023-02-28T11:49:32;77906.81;;;24.58;24.22
20955;BME280;10636;19.390;-99.256;2023-02-28T11:52:10;77906.72;;;24.56;23.73
20955;BME280;10636;19.390;-99.256;2023-02-28T11:55:01;77906.03;;;24.56;23.64
20955;BME280;10636;19.390;-99.256;2023-02-28T11:57:56;77908.03;;;24.55;23.92
20955;BME280;10636;19.390;-99.256;2023-02-28T12:00:42;77902.44;;;24.49;24.28
20955;BME280;10636;19.390;-99.256;2023-02-28T12:03:22;77916.00;;;24.53;23.99
20955;BME280;10636;19.390;-99.256;2023-02-28T12:06:01;77906.66;;;24.54;24.66
20955;BME280;10636;19.390;-99.256;2023-02-28T12:08:48;77915.31;;;24.52;24.16
20955;BME280;10636;19.390;-99.256;2023-02-28T12:11:28;77908.66;;;24.54;24.34
20955;BME280;10636;19.390;-99.256;2023-02-28T12:14:18;77913.25;;;24.51;24.29
20955;BME280;10636;19.390;-99.256;2023-02-28T12:17:00;77922.59;;;24.50;24.22
20955;BME280;10636;19.390;-99.256;2023-02-28T12:19:39;77919.84;;;24.48;24.82
20955;BME280;10636;19.390;-99.256;2023-02-28T12:22:24;77920.97;;;24.43;24.41
20955;BME280;10636;19.390;-99.256;2023-02-28T12:27:49;77921.22;;;24.49;24.27
20955;BME280;10636;19.390;-99.256;2023-02-28T12:30:23;77933.94;;;24.48;24.30
20955;BME280;10636;19.390;-99.256;2023-02-28T12:32:56;77930.56;;;24.48;24.20
20955;BME280;10636;19.390;-99.256;2023-02-28T12:35:32;77922.44;;;24.46;24.44
20955;BME280;10636;19.390;-99.256;2023-02-28T12:38:05;77925.78;;;24.46;23.76
20955;BME280;10636;19.390;-99.256;2023-02-28T12:40:44;77932.47;;;24.45;24.14
20955;BME280;10636;19.390;-99.256;2023-02-28T12:43:16;77922.03;;;24.36;24.18
20955;BME280;10636;19.390;-99.256;2023-02-28T12:45:49;77932.31;;;24.41;23.71
20955;BME280;10636;19.390;-99.256;2023-02-28T12:48:24;77934.91;;;24.39;23.73
20955;BME280;10636;19.390;-99.256;2023-02-28T12:50:54;77932.84;;;24.38;24.45
20955;BME280;10636;19.390;-99.256;2023-02-28T12:53:26;77942.19;;;24.37;23.92
20955;BME280;10636;19.390;-99.256;2023-02-28T12:56:08;77936.66;;;24.33;23.86
20955;BME280;10636;19.390;-99.256;2023-02-28T12:58:41;77942.69;;;24.33;23.83
20955;BME280;10636;19.390;-99.256;2023-02-28T13:01:32;77949.25;;;24.30;24.70
20955;BME280;10636;19.390;-99.256;2023-02-28T13:04:32;77951.25;;;24.30;24.75
20955;BME280;10636;19.390;-99.256;2023-02-28T13:07:21;77946.44;;;24.26;24.54
20955;BME280;10636;19.390;-99.256;2023-02-28T13:09:57;77942.38;;;24.25;24.86
20955;BME280;10636;19.390;-99.256;2023-02-28T13:12:27;77945.66;;;24.23;24.70
20955;BME280;10636;19.390;-99.256;2023-02-28T13:15:04;77951.63;;;24.22;24.77
20955;BME280;10636;19.390;-99.256;2023-02-28T13:17:40;77953.63;;;24.21;24.24